Terminal Aerodrome Forecast
Issued by NWS Newport/Morehead City, NC

Home | Current Version | Previous Version | Graphics & Text | Print | Product List | Glossary On
Versions: 1 2 3 4 5 6 7 8 9 10 11 12 13 14 15 16 17
000
FTUS42 KMHX 142331
TAFEWN
TAF
KEWN 142331Z 1500/1524 VRB04KT P6SM BKN018
     FM151100 VRB03KT P6SM BKN015
     FM151400 35006KT P6SM BKN035
     FM151700 02007KT P6SM SCT020=

USA.gov is the U.S. government's official web portal to all federal, state and local government web resources and services.